sensor_id;sensor_type;location;lat;lon;timestamp;temperature;humidity
3408;DHT22;1717;50.240;8.406;2022-07-12T00:00:27;17.30;98.20
3408;DHT22;1717;50.240;8.406;2022-07-12T00:02:54;17.20;98.30
3408;DHT22;1717;50.240;8.406;2022-07-12T00:05:21;17.20;98.40
3408;DHT22;1717;50.240;8.406;2022-07-12T00:07:49;17.20;98.50
3408;DHT22;1717;50.240;8.406;2022-07-12T00:10:16;17.20;98.60
3408;DHT22;1717;50.240;8.406;2022-07-12T00:12:43;17.20;98.70
3408;DHT22;1717;50.240;8.406;2022-07-12T00:15:10;17.20;98.80
3408;DHT22;1717;50.240;8.406;2022-07-12T00:17:37;17.20;98.90
3408;DHT22;1717;50.240;8.406;2022-07-12T00:20:06;17.10;99.00
3408;DHT22;1717;50.240;8.406;2022-07-12T00:22:33;17.10;99.00
3408;DHT22;1717;50.240;8.406;2022-07-12T00:25:01;17.00;99.10
3408;DHT22;1717;50.240;8.406;2022-07-12T00:27:28;17.10;99.20
3408;DHT22;1717;50.240;8.406;2022-07-12T00:29:55;17.00;99.20
3408;DHT22;1717;50.240;8.406;2022-07-12T00:32:22;17.00;99.40
3408;DHT22;1717;50.240;8.406;2022-07-12T00:34:48;17.00;99.60
3408;DHT22;1717;50.240;8.406;2022-07-12T00:37:15;17.00;99.70
3408;DHT22;1717;50.240;8.406;2022-07-12T00:39:42;16.90;99.70
3408;DHT22;1717;50.240;8.406;2022-07-12T00:42:10;16.90;99.80
3408;DHT22;1717;50.240;8.406;2022-07-12T00:44:38;16.90;99.80
3408;DHT22;1717;50.240;8.406;2022-07-12T00:47:05;16.90;99.90
3408;DHT22;1717;50.240;8.406;2022-07-12T00:49:32;16.90;99.90
3408;DHT22;1717;50.240;8.406;2022-07-12T00:52:00;16.90;99.90
3408;DHT22;1717;50.240;8.406;2022-07-12T00:54:27;16.90;99.80
3408;DHT22;1717;50.240;8.406;2022-07-12T00:56:54;17.00;99.90
3408;DHT22;1717;50.240;8.406;2022-07-12T00:59:22;16.90;99.90
3408;DHT22;1717;50.240;8.406;2022-07-12T01:01:49;16.80;99.80
3408;DHT22;1717;50.240;8.406;2022-07-12T01:04:16;16.90;99.90
3408;DHT22;1717;50.240;8.406;2022-07-12T01:06:44;16.90;99.90
3408;DHT22;1717;50.240;8.406;2022-07-12T01:09:11;16.80;99.80
3408;DHT22;1717;50.240;8.406;2022-07-12T01:11:38;16.80;99.80
3408;DHT22;1717;50.240;8.406;2022-07-12T01:14:05;16.80;99.70
3408;DHT22;1717;50.240;8.406;2022-07-12T01:16:34;16.80;99.70
3408;DHT22;1717;50.240;8.406;2022-07-12T01:19:04;16.80;99.80
3408;DHT22;1717;50.240;8.406;2022-07-12T01:21:37;16.80;99.70
3408;DHT22;1717;50.240;8.406;2022-07-12T01:24:06;16.80;99.70
3408;DHT22;1717;50.240;8.406;2022-07-12T01:26:35;16.80;99.90
3408;DHT22;1717;50.240;8.406;2022-07-12T01:29:02;16.80;99.80
3408;DHT22;1717;50.240;8.406;2022-07-12T01:31:31;16.80;99.80
3408;DHT22;1717;50.240;8.406;2022-07-12T01:33:58;16.90;99.90
3408;DHT22;1717;50.240;8.406;2022-07-12T01:36:25;16.80;99.90
3408;DHT22;1717;50.240;8.406;2022-07-12T01:38:52;16.80;99.90
3408;DHT22;1717;50.240;8.406;2022-07-12T01:41:21;16.80;99.80
3408;DHT22;1717;50.240;8.406;2022-07-12T01:43:48;16.80;99.80
3408;DHT22;1717;50.240;8.406;2022-07-12T01:46:15;16.80;99.80
3408;DHT22;1717;50.240;8.406;2022-07-12T01:48:42;16.80;99.80
3408;DHT22;1717;50.240;8.406;2022-07-12T01:51:09;16.80;99.80
3408;DHT22;1717;50.240;8.406;2022-07-12T01:53:36;16.80;99.80
3408;DHT22;1717;50.240;8.406;2022-07-12T01:56:04;16.80;99.80
3408;DHT22;1717;50.240;8.406;2022-07-12T01:58:32;16.70;99.80
3408;DHT22;1717;50.240;8.406;2022-07-12T02:00:59;16.70;99.80
3408;DHT22;1717;50.240;8.406;2022-07-12T02:03:26;16.70;99.80
3408;DHT22;1717;50.240;8.406;2022-07-12T02:05:53;16.70;99.80
3408;DHT22;1717;50.240;8.406;2022-07-12T02:08:20;16.70;99.80
3408;DHT22;1717;50.240;8.406;2022-07-12T02:10:47;16.70;99.80
3408;DHT22;1717;50.240;8.406;2022-07-12T02:13:14;16.70;99.60
3408;DHT22;1717;50.240;8.406;2022-07-12T02:15:42;16.60;99.40
3408;DHT22;1717;50.240;8.406;2022-07-12T02:18:08;16.70;99.30
3408;DHT22;1717;50.240;8.406;2022-07-12T02:20:35;16.60;99.10
3408;DHT22;1717;50.240;8.406;2022-07-12T02:23:02;16.60;99.00
3408;DHT22;1717;50.240;8.406;2022-07-12T02:25:29;16.60;99.00
3408;DHT22;1717;50.240;8.406;2022-07-12T02:27:57;16.60;98.90
3408;DHT22;1717;50.240;8.406;2022-07-12T02:30:23;16.50;98.90
3408;DHT22;1717;50.240;8.406;2022-07-12T02:32:51;16.50;98.80
3408;DHT22;1717;50.240;8.406;2022-07-12T02:35:20;16.50;98.80
3408;DHT22;1717;50.240;8.406;2022-07-12T02:37:47;16.50;98.70
3408;DHT22;1717;50.240;8.406;2022-07-12T02:40:13;16.50;98.70
3408;DHT22;1717;50.240;8.406;2022-07-12T02:42:58;16.40;98.60
3408;DHT22;1717;50.240;8.406;2022-07-12T02:45:25;16.40;98.70
3408;DHT22;1717;50.240;8.406;2022-07-12T02:47:53;16.40;98.80
3408;DHT22;1717;50.240;8.406;2022-07-12T02:50:20;16.40;98.70
3408;DHT22;1717;50.240;8.406;2022-07-12T02:52:47;16.40;98.80
3408;DHT22;1717;50.240;8.406;2022-07-12T02:55:14;16.40;98.90
3408;DHT22;1717;50.240;8.406;2022-07-12T02:57:41;16.30;98.90
3408;DHT22;1717;50.240;8.406;2022-07-12T03:00:08;16.30;98.90
3408;DHT22;1717;50.240;8.406;2022-07-12T03:02:36;16.30;99.00
3408;DHT22;1717;50.240;8.406;2022-07-12T03:05:05;16.30;99.00
3408;DHT22;1717;50.240;8.406;2022-07-12T03:07:32;16.30;99.00
3408;DHT22;1717;50.240;8.406;2022-07-12T03:09:59;16.30;99.10
3408;DHT22;1717;50.240;8.406;2022-07-12T03:12:26;16.30;99.20
3408;DHT22;1717;50.240;8.406;2022-07-12T03:14:54;16.30;99.20
3408;DHT22;1717;50.240;8.406;2022-07-12T03:17:21;16.30;99.20
3408;DHT22;1717;50.240;8.406;2022-07-12T03:19:48;16.30;99.20
3408;DHT22;1717;50.240;8.406;2022-07-12T03:22:16;16.20;99.10
3408;DHT22;1717;50.240;8.406;2022-07-12T03:24:42;16.20;99.10
3408;DHT22;1717;50.240;8.406;2022-07-12T03:27:09;16.20;99.20
3408;DHT22;1717;50.240;8.406;2022-07-12T03:29:37;16.20;99.10
3408;DHT22;1717;50.240;8.406;2022-07-12T03:32:05;16.20;99.10
3408;DHT22;1717;50.240;8.406;2022-07-12T03:34:32;16.10;99.20
3408;DHT22;1717;50.240;8.406;2022-07-12T03:36:59;16.10;99.40
3408;DHT22;1717;50.240;8.406;2022-07-12T03:39:28;16.10;99.40
3408;DHT22;1717;50.240;8.406;2022-07-12T03:41:55;16.10;99.40
3408;DHT22;1717;50.240;8.406;2022-07-12T03:44:22;16.10;99.40
3408;DHT22;1717;50.240;8.406;2022-07-12T03:46:48;16.10;99.40
3408;DHT22;1717;50.240;8.406;2022-07-12T03:49:15;16.10;99.30
3408;DHT22;1717;50.240;8.406;2022-07-12T03:51:42;16.10;99.40
3408;DHT22;1717;50.240;8.406;2022-07-12T03:54:09;16.10;99.50
3408;DHT22;1717;50.240;8.406;2022-07-12T03:56:37;16.10;99.50
3408;DHT22;1717;50.240;8.406;2022-07-12T03:59:21;16.10;99.60
3408;DHT22;1717;50.240;8.406;2022-07-12T04:01:49;16.10;99.60
3408;DHT22;1717;50.240;8.406;2022-07-12T04:04:16;16.10;99.60
3408;DHT22;1717;50.240;8.406;2022-07-12T04:06:43;16.10;99.80
3408;DHT22;1717;50.240;8.406;2022-07-12T04:09:09;16.10;99.90
3408;DHT22;1717;50.240;8.406;2022-07-12T04:11:38;16.00;99.90
3408;DHT22;1717;50.240;8.406;2022-07-12T04:14:05;16.00;99.90
3408;DHT22;1717;50.240;8.406;2022-07-12T04:16:32;16.00;99.90
3408;DHT22;1717;50.240;8.406;2022-07-12T04:18:58;16.00;99.90
3408;DHT22;1717;50.240;8.406;2022-07-12T04:21:25;16.00;99.90
3408;DHT22;1717;50.240;8.406;2022-07-12T04:23:52;16.00;99.90
3408;DHT22;1717;50.240;8.406;2022-07-12T04:26:19;16.00;99.90
3408;DHT22;1717;50.240;8.406;2022-07-12T04:28:47;16.10;99.90
3408;DHT22;1717;50.240;8.406;2022-07-12T04:31:14;16.10;99.90
3408;DHT22;1717;50.240;8.406;2022-07-12T04:33:41;16.10;99.90
3408;DHT22;1717;50.240;8.406;2022-07-12T04:36:08;16.10;99.90
3408;DHT22;1717;50.240;8.406;2022-07-12T04:38:35;16.10;99.90
3408;DHT22;1717;50.240;8.406;2022-07-12T04:41:02;16.10;99.90
3408;DHT22;1717;50.240;8.406;2022-07-12T04:43:28;16.10;99.90
3408;DHT22;1717;50.240;8.406;2022-07-12T04:46:05;16.10;99.90
3408;DHT22;1717;50.240;8.406;2022-07-12T04:48:33;16.10;99.90
3408;DHT22;1717;50.240;8.406;2022-07-12T04:50:59;16.00;99.90
3408;DHT22;1717;50.240;8.406;2022-07-12T04:53:27;16.00;99.90
3408;DHT22;1717;50.240;8.406;2022-07-12T04:55:54;16.00;99.90
3408;DHT22;1717;50.240;8.406;2022-07-12T04:58:21;16.10;99.90
3408;DHT22;1717;50.240;8.406;2022-07-12T05:00:48;16.10;99.90
3408;DHT22;1717;50.240;8.406;2022-07-12T05:03:17;16.10;99.90
3408;DHT22;1717;50.240;8.406;2022-07-12T05:05:44;16.10;99.90
3408;DHT22;1717;50.240;8.406;2022-07-12T05:08:10;16.10;99.90
3408;DHT22;1717;50.240;8.406;2022-07-12T05:10:37;16.20;99.90
3408;DHT22;1717;50.240;8.406;2022-07-12T05:13:04;16.20;99.90
3408;DHT22;1717;50.240;8.406;2022-07-12T05:15:31;16.20;99.90
3408;DHT22;1717;50.240;8.406;2022-07-12T05:17:58;16.20;99.90
3408;DHT22;1717;50.240;8.406;2022-07-12T05:20:26;16.20;99.90
3408;DHT22;1717;50.240;8.406;2022-07-12T05:22:53;16.20;99.90
3408;DHT22;1717;50.240;8.406;2022-07-12T05:25:20;16.30;99.90
3408;DHT22;1717;50.240;8.406;2022-07-12T05:27:47;16.20;99.90
3408;DHT22;1717;50.240;8.406;2022-07-12T05:30:14;16.30;99.90
3408;DHT22;1717;50.240;8.406;2022-07-12T05:32:41;16.30;99.90
3408;DHT22;1717;50.240;8.406;2022-07-12T05:35:08;16.30;99.90
3408;DHT22;1717;50.240;8.406;2022-07-12T05:37:36;16.30;99.90
3408;DHT22;1717;50.240;8.406;2022-07-12T05:40:04;16.40;99.90
3408;DHT22;1717;50.240;8.406;2022-07-12T05:42:31;16.40;99.90
3408;DHT22;1717;50.240;8.406;2022-07-12T05:44:57;16.40;99.90
3408;DHT22;1717;50.240;8.406;2022-07-12T05:47:24;16.40;99.90
3408;DHT22;1717;50.240;8.406;2022-07-12T05:49:51;16.40;99.90
3408;DHT22;1717;50.240;8.406;2022-07-12T05:52:18;16.40;99.90
3408;DHT22;1717;50.240;8.406;2022-07-12T05:55:05;16.40;99.90
3408;DHT22;1717;50.240;8.406;2022-07-12T05:57:32;16.50;99.90
3408;DHT22;1717;50.240;8.406;2022-07-12T05:59:58;16.50;99.90
3408;DHT22;1717;50.240;8.406;2022-07-12T06:02:26;16.50;99.90
3408;DHT22;1717;50.240;8.406;2022-07-12T06:04:53;16.50;99.90
3408;DHT22;1717;50.240;8.406;2022-07-12T06:07:20;16.50;99.90
3408;DHT22;1717;50.240;8.406;2022-07-12T06:09:47;16.50;99.90
3408;DHT22;1717;50.240;8.406;2022-07-12T06:12:16;16.60;99.90
3408;DHT22;1717;50.240;8.406;2022-07-12T06:14:43;16.60;99.90
3408;DHT22;1717;50.240;8.406;2022-07-12T06:17:10;16.70;99.90
3408;DHT22;1717;50.240;8.406;2022-07-12T06:19:37;16.80;99.90
3408;DHT22;1717;50.240;8.406;2022-07-12T06:22:04;16.90;99.90
3408;DHT22;1717;50.240;8.406;2022-07-12T06:24:31;16.90;99.90
3408;DHT22;1717;50.240;8.406;2022-07-12T06:26:58;17.00;99.90
3408;DHT22;1717;50.240;8.406;2022-07-12T06:29:26;17.00;99.90
3408;DHT22;1717;50.240;8.406;2022-07-12T06:31:53;17.00;99.90
3408;DHT22;1717;50.240;8.406;2022-07-12T06:34:20;17.10;99.90
3408;DHT22;1717;50.240;8.406;2022-07-12T06:36:47;17.20;99.90
3408;DHT22;1717;50.240;8.406;2022-07-12T06:39:14;17.30;99.90
3408;DHT22;1717;50.240;8.406;2022-07-12T06:41:41;17.40;99.90
3408;DHT22;1717;50.240;8.406;2022-07-12T06:44:07;17.50;99.90
3408;DHT22;1717;50.240;8.406;2022-07-12T06:46:36;17.60;99.90
3408;DHT22;1717;50.240;8.406;2022-07-12T06:49:02;17.70;99.90
3408;DHT22;1717;50.240;8.406;2022-07-12T06:51:30;17.90;99.90
3408;DHT22;1717;50.240;8.406;2022-07-12T06:53:57;18.00;99.90
3408;DHT22;1717;50.240;8.406;2022-07-12T06:56:24;18.10;99.90
3408;DHT22;1717;50.240;8.406;2022-07-12T06:58:51;18.20;99.90
3408;DHT22;1717;50.240;8.406;2022-07-12T07:01:18;18.40;99.90
3408;DHT22;1717;50.240;8.406;2022-07-12T07:03:46;18.50;99.90
3408;DHT22;1717;50.240;8.406;2022-07-12T07:06:13;18.60;99.90
3408;DHT22;1717;50.240;8.406;2022-07-12T07:08:40;18.80;99.90
3408;DHT22;1717;50.240;8.406;2022-07-12T07:11:08;18.90;99.90
3408;DHT22;1717;50.240;8.406;2022-07-12T07:13:35;19.00;99.90
3408;DHT22;1717;50.240;8.406;2022-07-12T07:16:02;19.20;99.90
3408;DHT22;1717;50.240;8.406;2022-07-12T07:18:29;19.30;99.90
3408;DHT22;1717;50.240;8.406;2022-07-12T07:20:57;19.40;99.90
3408;DHT22;1717;50.240;8.406;2022-07-12T07:23:25;19.50;99.90
3408;DHT22;1717;50.240;8.406;2022-07-12T07:25:52;19.60;99.90
3408;DHT22;1717;50.240;8.406;2022-07-12T07:28:19;19.70;99.90
3408;DHT22;1717;50.240;8.406;2022-07-12T07:30:46;19.80;99.90
3408;DHT22;1717;50.240;8.406;2022-07-12T07:33:18;19.80;99.90
3408;DHT22;1717;50.240;8.406;2022-07-12T07:35:46;19.90;99.90
3408;DHT22;1717;50.240;8.406;2022-07-12T07:38:16;20.00;99.90
3408;DHT22;1717;50.240;8.406;2022-07-12T07:40:43;20.00;99.40
3408;DHT22;1717;50.240;8.406;2022-07-12T07:43:10;20.10;99.30
3408;DHT22;1717;50.240;8.406;2022-07-12T07:45:37;20.20;98.90
3408;DHT22;1717;50.240;8.406;2022-07-12T07:48:04;20.20;98.50
3408;DHT22;1717;50.240;8.406;2022-07-12T07:50:31;20.30;98.30
3408;DHT22;1717;50.240;8.406;2022-07-12T07:52:58;20.40;98.10
3408;DHT22;1717;50.240;8.406;2022-07-12T07:55:27;20.50;97.90
3408;DHT22;1717;50.240;8.406;2022-07-12T07:57:53;20.60;97.70
3408;DHT22;1717;50.240;8.406;2022-07-12T08:00:21;20.70;97.50
3408;DHT22;1717;50.240;8.406;2022-07-12T08:02:48;20.90;97.30
3408;DHT22;1717;50.240;8.406;2022-07-12T08:05:15;21.00;97.00
3408;DHT22;1717;50.240;8.406;2022-07-12T08:07:42;21.10;96.70
3408;DHT22;1717;50.240;8.406;2022-07-12T08:10:09;21.20;96.20
3408;DHT22;1717;50.240;8.406;2022-07-12T08:12:38;21.40;95.70
3408;DHT22;1717;50.240;8.406;2022-07-12T08:15:05;21.50;95.40
3408;DHT22;1717;50.240;8.406;2022-07-12T08:17:32;21.60;95.20
3408;DHT22;1717;50.240;8.406;2022-07-12T08:19:59;21.70;94.90
3408;DHT22;1717;50.240;8.406;2022-07-12T08:22:26;21.80;94.50
3408;DHT22;1717;50.240;8.406;2022-07-12T08:24:53;21.90;94.20
3408;DHT22;1717;50.240;8.406;2022-07-12T08:27:20;22.00;93.90
3408;DHT22;1717;50.240;8.406;2022-07-12T08:29:49;22.00;93.60
3408;DHT22;1717;50.240;8.406;2022-07-12T08:32:16;22.10;93.40
3408;DHT22;1717;50.240;8.406;2022-07-12T08:34:43;22.10;93.10
3408;DHT22;1717;50.240;8.406;2022-07-12T08:37:10;22.10;93.10
3408;DHT22;1717;50.240;8.406;2022-07-12T08:39:37;22.20;93.00
3408;DHT22;1717;50.240;8.406;2022-07-12T08:42:07;22.20;92.80
3408;DHT22;1717;50.240;8.406;2022-07-12T08:44:35;22.20;92.60
3408;DHT22;1717;50.240;8.406;2022-07-12T08:47:04;22.20;92.50
3408;DHT22;1717;50.240;8.406;2022-07-12T08:49:33;22.30;92.50
3408;DHT22;1717;50.240;8.406;2022-07-12T08:52:04;22.40;92.00
3408;DHT22;1717;50.240;8.406;2022-07-12T08:54:50;22.40;91.80
3408;DHT22;1717;50.240;8.406;2022-07-12T08:57:28;22.50;91.70
3408;DHT22;1717;50.240;8.406;2022-07-12T08:59:59;22.60;91.50
3408;DHT22;1717;50.240;8.406;2022-07-12T09:02:28;22.70;91.10
3408;DHT22;1717;50.240;8.406;2022-07-12T09:05:10;22.80;91.10
3408;DHT22;1717;50.240;8.406;2022-07-12T09:07:37;22.90;91.00
3408;DHT22;1717;50.240;8.406;2022-07-12T09:10:04;23.00;90.70
3408;DHT22;1717;50.240;8.406;2022-07-12T09:12:33;23.00;90.40
3408;DHT22;1717;50.240;8.406;2022-07-12T09:15:11;23.10;90.00
3408;DHT22;1717;50.240;8.406;2022-07-12T09:17:40;23.20;90.10
3408;DHT22;1717;50.240;8.406;2022-07-12T09:20:09;23.20;89.80
3408;DHT22;1717;50.240;8.406;2022-07-12T09:22:37;23.30;89.50
3408;DHT22;1717;50.240;8.406;2022-07-12T09:25:16;23.40;89.20
3408;DHT22;1717;50.240;8.406;2022-07-12T09:27:48;23.40;88.20
3408;DHT22;1717;50.240;8.406;2022-07-12T09:30:16;23.40;87.40
3408;DHT22;1717;50.240;8.406;2022-07-12T09:32:51;23.40;87.30
3408;DHT22;1717;50.240;8.406;2022-07-12T09:35:36;23.50;87.20
3408;DHT22;1717;50.240;8.406;2022-07-12T09:38:21;23.50;87.10
3408;DHT22;1717;50.240;8.406;2022-07-12T09:40:48;23.60;86.50
3408;DHT22;1717;50.240;8.406;2022-07-12T09:43:17;23.60;86.60
3408;DHT22;1717;50.240;8.406;2022-07-12T09:45:45;23.60;85.30
3408;DHT22;1717;50.240;8.406;2022-07-12T09:48:15;23.60;85.40
3408;DHT22;1717;50.240;8.406;2022-07-12T09:50:47;23.70;85.20
3408;DHT22;1717;50.240;8.406;2022-07-12T09:53:20;23.70;85.10
3408;DHT22;1717;50.240;8.406;2022-07-12T09:55:50;23.70;85.40
3408;DHT22;1717;50.240;8.406;2022-07-12T09:58:22;23.80;84.70
3408;DHT22;1717;50.240;8.406;2022-07-12T10:00:51;23.90;84.50
3408;DHT22;1717;50.240;8.406;2022-07-12T10:03:23;23.90;83.40
3408;DHT22;1717;50.240;8.406;2022-07-12T10:05:51;24.00;84.00
3408;DHT22;1717;50.240;8.406;2022-07-12T10:08:20;24.00;83.00
3408;DHT22;1717;50.240;8.406;2022-07-12T10:10:49;24.10;83.00
3408;DHT22;1717;50.240;8.406;2022-07-12T10:13:17;24.20;82.70
3408;DHT22;1717;50.240;8.406;2022-07-12T10:15:46;24.20;82.30
3408;DHT22;1717;50.240;8.406;2022-07-12T10:18:17;24.30;82.10
3408;DHT22;1717;50.240;8.406;2022-07-12T10:20:48;24.40;81.60
3408;DHT22;1717;50.240;8.406;2022-07-12T10:23:37;24.40;80.80
3408;DHT22;1717;50.240;8.406;2022-07-12T10:26:25;24.40;80.50
3408;DHT22;1717;50.240;8.406;2022-07-12T10:28:59;24.50;81.00
3408;DHT22;1717;50.240;8.406;2022-07-12T10:31:28;24.60;79.70
3408;DHT22;1717;50.240;8.406;2022-07-12T10:34:08;24.60;78.40
3408;DHT22;1717;50.240;8.406;2022-07-12T10:37:10;24.60;78.50
3408;DHT22;1717;50.240;8.406;2022-07-12T10:39:39;24.60;77.50
3408;DHT22;1717;50.240;8.406;2022-07-12T10:42:16;24.70;77.40
3408;DHT22;1717;50.240;8.406;2022-07-12T10:44:45;24.70;76.60
3408;DHT22;1717;50.240;8.406;2022-07-12T10:47:13;24.60;77.10
3408;DHT22;1717;50.240;8.406;2022-07-12T10:49:51;24.70;77.80
3408;DHT22;1717;50.240;8.406;2022-07-12T10:52:29;24.80;77.60
3408;DHT22;1717;50.240;8.406;2022-07-12T10:55:18;24.90;77.00
3408;DHT22;1717;50.240;8.406;2022-07-12T10:57:47;24.90;76.80
3408;DHT22;1717;50.240;8.406;2022-07-12T11:00:17;25.00;76.60
3408;DHT22;1717;50.240;8.406;2022-07-12T11:02:45;25.10;76.50
3408;DHT22;1717;50.240;8.406;2022-07-12T11:05:12;25.10;76.30
3408;DHT22;1717;50.240;8.406;2022-07-12T11:07:41;25.20;75.00
3408;DHT22;1717;50.240;8.406;2022-07-12T11:10:11;25.20;73.50
3408;DHT22;1717;50.240;8.406;2022-07-12T11:12:38;25.20;73.40
3408;DHT22;1717;50.240;8.406;2022-07-12T11:15:06;25.30;73.90
3408;DHT22;1717;50.240;8.406;2022-07-12T11:17:34;25.40;72.70
3408;DHT22;1717;50.240;8.406;2022-07-12T11:20:06;25.40;71.60
3408;DHT22;1717;50.240;8.406;2022-07-12T11:22:34;25.50;70.70
3408;DHT22;1717;50.240;8.406;2022-07-12T11:25:03;25.50;68.90
3408;DHT22;1717;50.240;8.406;2022-07-12T11:27:31;25.60;69.90
3408;DHT22;1717;50.240;8.406;2022-07-12T11:29:58;25.60;70.10
3408;DHT22;1717;50.240;8.406;2022-07-12T11:32:34;25.70;70.00
3408;DHT22;1717;50.240;8.406;2022-07-12T11:35:01;25.70;69.00
3408;DHT22;1717;50.240;8.406;2022-07-12T11:37:28;25.80;68.70
3408;DHT22;1717;50.240;8.406;2022-07-12T11:39:56;25.80;68.30
3408;DHT22;1717;50.240;8.406;2022-07-12T11:42:25;25.90;68.50
3408;DHT22;1717;50.240;8.406;2022-07-12T11:44:52;26.00;67.30
3408;DHT22;1717;50.240;8.406;2022-07-12T11:47:20;26.00;65.10
3408;DHT22;1717;50.240;8.406;2022-07-12T11:49:49;26.10;64.30
3408;DHT22;1717;50.240;8.406;2022-07-12T11:52:17;26.20;64.40
3408;DHT22;1717;50.240;8.406;2022-07-12T11:54:45;26.20;63.40
3408;DHT22;1717;50.240;8.406;2022-07-12T11:57:12;26.30;63.50
3408;DHT22;1717;50.240;8.406;2022-07-12T11:59:41;26.30;63.80
3408;DHT22;1717;50.240;8.406;2022-07-12T12:02:10;26.40;64.20
3408;DHT22;1717;50.240;8.406;2022-07-12T12:04:47;26.40;63.50
3408;DHT22;1717;50.240;8.406;2022-07-12T12:07:14;26.50;63.60
3408;DHT22;1717;50.240;8.406;2022-07-12T12:09:58;26.60;62.60
3408;DHT22;1717;50.240;8.406;2022-07-12T12:12:26;26.70;63.20
3408;DHT22;1717;50.240;8.406;2022-07-12T12:14:54;26.70;61.70
3408;DHT22;1717;50.240;8.406;2022-07-12T12:17:21;26.80;61.20
3408;DHT22;1717;50.240;8.406;2022-07-12T12:19:49;26.80;62.00
3408;DHT22;1717;50.240;8.406;2022-07-12T12:22:32;26.90;61.80
3408;DHT22;1717;50.240;8.406;2022-07-12T12:25:00;27.00;61.30
3408;DHT22;1717;50.240;8.406;2022-07-12T12:27:28;27.00;60.00
3408;DHT22;1717;50.240;8.406;2022-07-12T12:30:05;27.10;60.00
3408;DHT22;1717;50.240;8.406;2022-07-12T12:32:43;27.10;59.50
3408;DHT22;1717;50.240;8.406;2022-07-12T12:35:11;27.20;59.30
3408;DHT22;1717;50.240;8.406;2022-07-12T12:37:38;27.30;58.60
3408;DHT22;1717;50.240;8.406;2022-07-12T12:40:07;27.30;58.00
3408;DHT22;1717;50.240;8.406;2022-07-12T12:42:34;27.40;57.20
3408;DHT22;1717;50.240;8.406;2022-07-12T12:45:03;27.40;57.20
3408;DHT22;1717;50.240;8.406;2022-07-12T12:47:56;27.60;57.40
3408;DHT22;1717;50.240;8.406;2022-07-12T12:50:37;27.70;57.90
3408;DHT22;1717;50.240;8.406;2022-07-12T12:53:07;27.70;57.40
3408;DHT22;1717;50.240;8.406;2022-07-12T12:55:35;27.80;56.80
3408;DHT22;1717;50.240;8.406;2022-07-12T12:58:02;27.90;56.40
3408;DHT22;1717;50.240;8.406;2022-07-12T13:00:31;28.00;56.20
3408;DHT22;1717;50.240;8.406;2022-07-12T13:02:58;28.00;56.30
3408;DHT22;1717;50.240;8.406;2022-07-12T13:05:27;28.10;55.90
3408;DHT22;1717;50.240;8.406;2022-07-12T13:07:54;28.20;55.60
3408;DHT22;1717;50.240;8.406;2022-07-12T13:10:22;28.30;55.70
3408;DHT22;1717;50.240;8.406;2022-07-12T13:12:50;28.30;55.00
3408;DHT22;1717;50.240;8.406;2022-07-12T13:15:17;28.40;55.00
3408;DHT22;1717;50.240;8.406;2022-07-12T13:17:45;28.50;54.40
3408;DHT22;1717;50.240;8.406;2022-07-12T13:20:14;28.50;53.80
3408;DHT22;1717;50.240;8.406;2022-07-12T13:22:41;28.60;52.90
3408;DHT22;1717;50.240;8.406;2022-07-12T13:25:09;28.60;52.40
3408;DHT22;1717;50.240;8.406;2022-07-12T13:27:37;28.70;52.10
3408;DHT22;1717;50.240;8.406;2022-07-12T13:30:06;28.80;52.50
3408;DHT22;1717;50.240;8.406;2022-07-12T13:32:34;28.80;52.50
3408;DHT22;1717;50.240;8.406;2022-07-12T13:35:03;28.90;52.30
3408;DHT22;1717;50.240;8.406;2022-07-12T13:37:31;29.00;51.70
3408;DHT22;1717;50.240;8.406;2022-07-12T13:39:58;29.00;51.20
3408;DHT22;1717;50.240;8.406;2022-07-12T13:42:37;29.00;51.20
3408;DHT22;1717;50.240;8.406;2022-07-12T13:45:06;29.10;50.50
3408;DHT22;1717;50.240;8.406;2022-07-12T13:47:34;29.20;50.80
3408;DHT22;1717;50.240;8.406;2022-07-12T13:50:03;29.20;50.00
3408;DHT22;1717;50.240;8.406;2022-07-12T13:52:30;29.30;49.70
3408;DHT22;1717;50.240;8.406;2022-07-12T13:54:57;29.30;49.40
3408;DHT22;1717;50.240;8.406;2022-07-12T13:57:24;29.40;49.30
3408;DHT22;1717;50.240;8.406;2022-07-12T13:59:51;29.40;49.20
3408;DHT22;1717;50.240;8.406;2022-07-12T14:02:19;29.50;49.30
3408;DHT22;1717;50.240;8.406;2022-07-12T14:04:46;29.60;49.00
3408;DHT22;1717;50.240;8.406;2022-07-12T14:07:14;29.70;48.70
3408;DHT22;1717;50.240;8.406;2022-07-12T14:09:41;29.70;48.80
3408;DHT22;1717;50.240;8.406;2022-07-12T14:12:08;29.70;48.70
3408;DHT22;1717;50.240;8.406;2022-07-12T14:14:35;29.80;48.60
3408;DHT22;1717;50.240;8.406;2022-07-12T14:17:31;29.80;48.00
3408;DHT22;1717;50.240;8.406;2022-07-12T14:19:59;29.80;47.80
3408;DHT22;1717;50.240;8.406;2022-07-12T14:22:29;29.90;47.90
3408;DHT22;1717;50.240;8.406;2022-07-12T14:24:56;30.00;48.10
3408;DHT22;1717;50.240;8.406;2022-07-12T14:27:23;30.00;48.00
3408;DHT22;1717;50.240;8.406;2022-07-12T14:29:50;30.10;47.80
3408;DHT22;1717;50.240;8.406;2022-07-12T14:32:17;30.10;47.70
3408;DHT22;1717;50.240;8.406;2022-07-12T14:34:44;30.20;48.60
3408;DHT22;1717;50.240;8.406;2022-07-12T14:37:11;30.20;47.80
3408;DHT22;1717;50.240;8.406;2022-07-12T14:39:39;30.20;47.30
3408;DHT22;1717;50.240;8.406;2022-07-12T14:42:07;30.20;47.20
3408;DHT22;1717;50.240;8.406;2022-07-12T14:44:34;30.30;47.60
3408;DHT22;1717;50.240;8.406;2022-07-12T14:47:02;30.30;47.30
3408;DHT22;1717;50.240;8.406;2022-07-12T14:49:29;30.40;47.50
3408;DHT22;1717;50.240;8.406;2022-07-12T14:51:56;30.40;47.50
3408;DHT22;1717;50.240;8.406;2022-07-12T14:54:24;30.40;47.50
3408;DHT22;1717;50.240;8.406;2022-07-12T14:56:52;30.40;47.70
3408;DHT22;1717;50.240;8.406;2022-07-12T14:59:19;30.40;47.80
3408;DHT22;1717;50.240;8.406;2022-07-12T15:01:48;30.40;47.80
3408;DHT22;1717;50.240;8.406;2022-07-12T15:04:15;30.40;47.80
3408;DHT22;1717;50.240;8.406;2022-07-12T15:06:42;30.40;47.90
3408;DHT22;1717;50.240;8.406;2022-07-12T15:09:08;30.40;48.10
3408;DHT22;1717;50.240;8.406;2022-07-12T15:11:35;30.40;48.10
3408;DHT22;1717;50.240;8.406;2022-07-12T15:14:04;30.50;48.10
3408;DHT22;1717;50.240;8.406;2022-07-12T15:16:31;30.50;48.10
3408;DHT22;1717;50.240;8.406;2022-07-12T15:18:58;30.50;48.00
3408;DHT22;1717;50.240;8.406;2022-07-12T15:21:25;30.50;47.90
3408;DHT22;1717;50.240;8.406;2022-07-12T15:23:52;30.50;48.00
3408;DHT22;1717;50.240;8.406;2022-07-12T15:26:20;30.50;48.10
3408;DHT22;1717;50.240;8.406;2022-07-12T15:28:52;30.50;48.20
3408;DHT22;1717;50.240;8.406;2022-07-12T15:31:21;30.50;48.30
3408;DHT22;1717;50.240;8.406;2022-07-12T15:33:49;30.50;48.30
3408;DHT22;1717;50.240;8.406;2022-07-12T15:36:16;30.50;48.20
3408;DHT22;1717;50.240;8.406;2022-07-12T15:38:43;30.50;48.00
3408;DHT22;1717;50.240;8.406;2022-07-12T15:41:11;30.50;48.00
3408;DHT22;1717;50.240;8.406;2022-07-12T15:43:39;30.50;47.90
3408;DHT22;1717;50.240;8.406;2022-07-12T15:46:06;30.50;48.00
3408;DHT22;1717;50.240;8.406;2022-07-12T15:48:37;30.50;48.10
3408;DHT22;1717;50.240;8.406;2022-07-12T15:51:05;30.60;47.80
3408;DHT22;1717;50.240;8.406;2022-07-12T15:53:32;30.60;48.00
3408;DHT22;1717;50.240;8.406;2022-07-12T15:55:59;30.60;48.00
3408;DHT22;1717;50.240;8.406;2022-07-12T15:58:28;30.60;47.60
3408;DHT22;1717;50.240;8.406;2022-07-12T16:00:57;30.60;47.50
3408;DHT22;1717;50.240;8.406;2022-07-12T16:03:25;30.60;47.00
3408;DHT22;1717;50.240;8.406;2022-07-12T16:05:55;30.70;47.20
3408;DHT22;1717;50.240;8.406;2022-07-12T16:08:22;30.70;47.10
3408;DHT22;1717;50.240;8.406;2022-07-12T16:10:49;30.70;47.10